sensor_id;sensor_type;location;lat;lon;timestamp;temperature;humidity
26691;DHT22;14307;51.718;8.938;2023-05-14T00:00:04;7.90;99.90
26691;DHT22;14307;51.718;8.938;2023-05-14T00:02:31;7.90;99.90
26691;DHT22;14307;51.718;8.938;2023-05-14T00:04:58;7.80;99.90
26691;DHT22;14307;51.718;8.938;2023-05-14T00:07:25;7.80;99.90
26691;DHT22;14307;51.718;8.938;2023-05-14T00:09:57;7.80;99.90
26691;DHT22;14307;51.718;8.938;2023-05-14T00:12:24;7.80;99.90
26691;DHT22;14307;51.718;8.938;2023-05-14T00:14:52;7.80;99.90
26691;DHT22;14307;51.718;8.938;2023-05-14T00:17:19;7.70;99.90
26691;DHT22;14307;51.718;8.938;2023-05-14T00:19:46;7.60;99.90
26691;DHT22;14307;51.718;8.938;2023-05-14T00:22:13;7.60;99.90
26691;DHT22;14307;51.718;8.938;2023-05-14T00:24:39;7.60;99.90
26691;DHT22;14307;51.718;8.938;2023-05-14T00:27:06;7.60;99.90
26691;DHT22;14307;51.718;8.938;2023-05-14T00:29:33;7.80;99.90
26691;DHT22;14307;51.718;8.938;2023-05-14T00:32:01;7.70;99.90
26691;DHT22;14307;51.718;8.938;2023-05-14T00:34:27;7.80;99.90
26691;DHT22;14307;51.718;8.938;2023-05-14T00:36:55;7.80;99.90
26691;DHT22;14307;51.718;8.938;2023-05-14T00:39:22;7.80;99.90
26691;DHT22;14307;51.718;8.938;2023-05-14T00:41:49;7.70;99.90
26691;DHT22;14307;51.718;8.938;2023-05-14T00:44:15;7.70;99.90
26691;DHT22;14307;51.718;8.938;2023-05-14T00:46:42;7.70;99.90
26691;DHT22;14307;51.718;8.938;2023-05-14T00:49:10;7.60;99.90
26691;DHT22;14307;51.718;8.938;2023-05-14T00:51:37;7.50;99.90
26691;DHT22;14307;51.718;8.938;2023-05-14T00:54:04;7.50;99.90
26691;DHT22;14307;51.718;8.938;2023-05-14T00:56:31;7.70;99.90
26691;DHT22;14307;51.718;8.938;2023-05-14T00:59:00;7.60;99.90
26691;DHT22;14307;51.718;8.938;2023-05-14T01:01:27;7.60;99.90
26691;DHT22;14307;51.718;8.938;2023-05-14T01:03:54;7.60;99.90
26691;DHT22;14307;51.718;8.938;2023-05-14T01:09:19;7.60;99.90
26691;DHT22;14307;51.718;8.938;2023-05-14T01:17:25;7.40;99.90
26691;DHT22;14307;51.718;8.938;2023-05-14T01:19:54;7.50;99.90
26691;DHT22;14307;51.718;8.938;2023-05-14T01:22:21;7.40;99.90
26691;DHT22;14307;51.718;8.938;2023-05-14T01:24:48;7.40;99.90
26691;DHT22;14307;51.718;8.938;2023-05-14T01:27:34;7.20;99.90
26691;DHT22;14307;51.718;8.938;2023-05-14T01:30:34;7.20;99.90
26691;DHT22;14307;51.718;8.938;2023-05-14T01:33:14;7.20;99.90
26691;DHT22;14307;51.718;8.938;2023-05-14T01:35:42;7.30;99.90
26691;DHT22;14307;51.718;8.938;2023-05-14T01:38:11;7.30;99.90
26691;DHT22;14307;51.718;8.938;2023-05-14T01:40:39;7.30;99.90
26691;DHT22;14307;51.718;8.938;2023-05-14T01:43:06;7.30;99.90
26691;DHT22;14307;51.718;8.938;2023-05-14T01:45:35;7.30;99.90
26691;DHT22;14307;51.718;8.938;2023-05-14T01:48:04;7.20;99.90
26691;DHT22;14307;51.718;8.938;2023-05-14T01:50:31;7.10;99.90
26691;DHT22;14307;51.718;8.938;2023-05-14T01:52:57;7.10;99.90
26691;DHT22;14307;51.718;8.938;2023-05-14T01:55:26;7.10;99.90
26691;DHT22;14307;51.718;8.938;2023-05-14T01:57:53;7.10;99.90
26691;DHT22;14307;51.718;8.938;2023-05-14T02:00:21;7.10;99.90
26691;DHT22;14307;51.718;8.938;2023-05-14T02:02:49;7.10;99.90
26691;DHT22;14307;51.718;8.938;2023-05-14T02:05:16;7.00;99.90
26691;DHT22;14307;51.718;8.938;2023-05-14T02:07:42;7.00;99.90
26691;DHT22;14307;51.718;8.938;2023-05-14T02:10:09;7.00;99.90
26691;DHT22;14307;51.718;8.938;2023-05-14T02:12:36;7.00;99.90
26691;DHT22;14307;51.718;8.938;2023-05-14T02:15:03;6.80;99.90
26691;DHT22;14307;51.718;8.938;2023-05-14T02:17:31;6.90;99.90
26691;DHT22;14307;51.718;8.938;2023-05-14T02:19:58;6.90;99.90
26691;DHT22;14307;51.718;8.938;2023-05-14T02:22:24;6.80;99.90
26691;DHT22;14307;51.718;8.938;2023-05-14T02:24:51;6.90;99.90
26691;DHT22;14307;51.718;8.938;2023-05-14T02:27:18;6.90;99.90
26691;DHT22;14307;51.718;8.938;2023-05-14T02:29:45;6.90;99.90
26691;DHT22;14307;51.718;8.938;2023-05-14T02:32:12;6.80;99.90
26691;DHT22;14307;51.718;8.938;2023-05-14T02:34:39;6.80;99.90
26691;DHT22;14307;51.718;8.938;2023-05-14T02:37:06;6.90;99.90
26691;DHT22;14307;51.718;8.938;2023-05-14T02:39:32;6.80;99.90
26691;DHT22;14307;51.718;8.938;2023-05-14T02:41:59;6.80;99.90
26691;DHT22;14307;51.718;8.938;2023-05-14T02:44:26;6.70;99.90
26691;DHT22;14307;51.718;8.938;2023-05-14T02:46:53;6.70;99.90
26691;DHT22;14307;51.718;8.938;2023-05-14T02:49:20;6.80;99.90
26691;DHT22;14307;51.718;8.938;2023-05-14T02:51:46;6.80;99.90
26691;DHT22;14307;51.718;8.938;2023-05-14T02:54:13;6.90;99.90
26691;DHT22;14307;51.718;8.938;2023-05-14T02:56:41;6.90;99.90
26691;DHT22;14307;51.718;8.938;2023-05-14T02:59:08;6.80;99.90
26691;DHT22;14307;51.718;8.938;2023-05-14T03:01:35;6.90;99.90
26691;DHT22;14307;51.718;8.938;2023-05-14T03:04:05;7.00;99.90
26691;DHT22;14307;51.718;8.938;2023-05-14T03:06:33;7.00;99.90
26691;DHT22;14307;51.718;8.938;2023-05-14T03:08:59;7.10;99.90
26691;DHT22;14307;51.718;8.938;2023-05-14T03:11:26;7.10;99.90
26691;DHT22;14307;51.718;8.938;2023-05-14T03:13:53;7.00;99.90
26691;DHT22;14307;51.718;8.938;2023-05-14T03:16:20;7.00;99.90
26691;DHT22;14307;51.718;8.938;2023-05-14T03:18:46;7.00;99.90
26691;DHT22;14307;51.718;8.938;2023-05-14T03:21:13;6.80;99.90
26691;DHT22;14307;51.718;8.938;2023-05-14T03:23:40;6.70;99.90
26691;DHT22;14307;51.718;8.938;2023-05-14T03:26:07;6.60;99.90
26691;DHT22;14307;51.718;8.938;2023-05-14T03:28:33;6.40;99.90
26691;DHT22;14307;51.718;8.938;2023-05-14T03:31:00;6.50;99.90
26691;DHT22;14307;51.718;8.938;2023-05-14T03:33:29;6.60;99.90
26691;DHT22;14307;51.718;8.938;2023-05-14T03:35:56;6.60;99.90
26691;DHT22;14307;51.718;8.938;2023-05-14T03:38:23;6.60;99.90
26691;DHT22;14307;51.718;8.938;2023-05-14T03:40:50;6.60;99.90
26691;DHT22;14307;51.718;8.938;2023-05-14T03:43:16;6.50;99.90
26691;DHT22;14307;51.718;8.938;2023-05-14T03:45:43;6.50;99.90
26691;DHT22;14307;51.718;8.938;2023-05-14T03:48:10;6.40;99.90
26691;DHT22;14307;51.718;8.938;2023-05-14T03:50:37;6.50;99.90
26691;DHT22;14307;51.718;8.938;2023-05-14T03:53:05;6.50;99.90
26691;DHT22;14307;51.718;8.938;2023-05-14T03:55:31;6.60;99.90
26691;DHT22;14307;51.718;8.938;2023-05-14T03:57:58;6.60;99.90
26691;DHT22;14307;51.718;8.938;2023-05-14T04:00:26;6.70;99.90
26691;DHT22;14307;51.718;8.938;2023-05-14T04:02:52;6.60;99.90
26691;DHT22;14307;51.718;8.938;2023-05-14T04:05:22;6.50;99.90
26691;DHT22;14307;51.718;8.938;2023-05-14T04:07:49;6.60;99.90
26691;DHT22;14307;51.718;8.938;2023-05-14T04:10:15;6.80;99.90
26691;DHT22;14307;51.718;8.938;2023-05-14T04:12:42;6.80;99.90
26691;DHT22;14307;51.718;8.938;2023-05-14T04:15:09;6.70;99.90
26691;DHT22;14307;51.718;8.938;2023-05-14T04:17:36;6.60;99.90
26691;DHT22;14307;51.718;8.938;2023-05-14T04:20:03;6.70;99.90
26691;DHT22;14307;51.718;8.938;2023-05-14T04:22:30;6.60;99.90
26691;DHT22;14307;51.718;8.938;2023-05-14T04:24:57;6.60;99.90
26691;DHT22;14307;51.718;8.938;2023-05-14T04:27:24;6.70;99.90
26691;DHT22;14307;51.718;8.938;2023-05-14T04:29:51;6.70;99.90
26691;DHT22;14307;51.718;8.938;2023-05-14T04:32:17;6.70;99.90
26691;DHT22;14307;51.718;8.938;2023-05-14T04:34:44;6.80;99.90
26691;DHT22;14307;51.718;8.938;2023-05-14T04:37:12;6.80;99.90
26691;DHT22;14307;51.718;8.938;2023-05-14T04:39:39;6.90;99.90
26691;DHT22;14307;51.718;8.938;2023-05-14T04:42:06;7.00;99.90
26691;DHT22;14307;51.718;8.938;2023-05-14T04:44:34;7.10;99.90
26691;DHT22;14307;51.718;8.938;2023-05-14T04:47:01;7.20;99.90
26691;DHT22;14307;51.718;8.938;2023-05-14T04:49:28;7.30;99.90
26691;DHT22;14307;51.718;8.938;2023-05-14T04:51:55;7.30;99.90
26691;DHT22;14307;51.718;8.938;2023-05-14T04:54:22;7.40;99.90
26691;DHT22;14307;51.718;8.938;2023-05-14T04:56:49;7.50;99.90
26691;DHT22;14307;51.718;8.938;2023-05-14T04:59:16;7.60;99.90
26691;DHT22;14307;51.718;8.938;2023-05-14T05:01:43;7.70;99.90
26691;DHT22;14307;51.718;8.938;2023-05-14T05:04:10;7.90;99.90
26691;DHT22;14307;51.718;8.938;2023-05-14T05:06:37;8.10;99.90
26691;DHT22;14307;51.718;8.938;2023-05-14T05:09:04;8.20;99.90
26691;DHT22;14307;51.718;8.938;2023-05-14T05:11:31;8.50;99.90
26691;DHT22;14307;51.718;8.938;2023-05-14T05:13:57;9.10;99.90
26691;DHT22;14307;51.718;8.938;2023-05-14T05:16:24;9.50;99.90
26691;DHT22;14307;51.718;8.938;2023-05-14T05:18:51;9.90;99.90
26691;DHT22;14307;51.718;8.938;2023-05-14T05:21:18;10.20;99.90
26691;DHT22;14307;51.718;8.938;2023-05-14T05:23:44;10.70;99.90
26691;DHT22;14307;51.718;8.938;2023-05-14T05:26:11;10.80;99.90
26691;DHT22;14307;51.718;8.938;2023-05-14T05:28:37;10.90;99.90
26691;DHT22;14307;51.718;8.938;2023-05-14T05:31:04;11.10;99.90
26691;DHT22;14307;51.718;8.938;2023-05-14T05:33:31;11.20;99.90
26691;DHT22;14307;51.718;8.938;2023-05-14T05:35:57;11.30;99.90
26691;DHT22;14307;51.718;8.938;2023-05-14T05:38:24;11.60;99.90
26691;DHT22;14307;51.718;8.938;2023-05-14T05:40:51;11.70;99.90
26691;DHT22;14307;51.718;8.938;2023-05-14T05:43:18;11.80;99.90
26691;DHT22;14307;51.718;8.938;2023-05-14T05:45:45;11.80;99.90
26691;DHT22;14307;51.718;8.938;2023-05-14T05:48:12;12.00;99.90
26691;DHT22;14307;51.718;8.938;2023-05-14T05:50:38;12.00;99.90
26691;DHT22;14307;51.718;8.938;2023-05-14T05:53:05;12.10;99.90
26691;DHT22;14307;51.718;8.938;2023-05-14T05:55:32;12.40;99.90
26691;DHT22;14307;51.718;8.938;2023-05-14T05:57:59;12.50;99.90
26691;DHT22;14307;51.718;8.938;2023-05-14T06:00:25;12.70;99.90
26691;DHT22;14307;51.718;8.938;2023-05-14T06:02:52;13.20;99.90
26691;DHT22;14307;51.718;8.938;2023-05-14T06:05:19;13.60;99.90
26691;DHT22;14307;51.718;8.938;2023-05-14T06:07:46;13.90;99.90
26691;DHT22;14307;51.718;8.938;2023-05-14T06:10:13;14.00;99.90
26691;DHT22;14307;51.718;8.938;2023-05-14T06:12:39;14.40;99.90
26691;DHT22;14307;51.718;8.938;2023-05-14T06:15:06;14.80;99.90
26691;DHT22;14307;51.718;8.938;2023-05-14T06:17:33;14.90;99.90
26691;DHT22;14307;51.718;8.938;2023-05-14T06:20:00;14.90;99.90
26691;DHT22;14307;51.718;8.938;2023-05-14T06:22:27;14.80;99.90
26691;DHT22;14307;51.718;8.938;2023-05-14T06:24:53;14.90;99.90
26691;DHT22;14307;51.718;8.938;2023-05-14T06:27:20;14.90;99.90
26691;DHT22;14307;51.718;8.938;2023-05-14T06:29:47;15.00;99.90
26691;DHT22;14307;51.718;8.938;2023-05-14T06:32:14;15.30;99.90
26691;DHT22;14307;51.718;8.938;2023-05-14T06:34:41;15.00;99.90
26691;DHT22;14307;51.718;8.938;2023-05-14T06:37:09;15.00;99.90
26691;DHT22;14307;51.718;8.938;2023-05-14T06:39:37;15.10;99.90
26691;DHT22;14307;51.718;8.938;2023-05-14T06:42:04;15.30;99.90
26691;DHT22;14307;51.718;8.938;2023-05-14T06:44:31;14.90;99.90
26691;DHT22;14307;51.718;8.938;2023-05-14T06:46:58;14.90;99.90
26691;DHT22;14307;51.718;8.938;2023-05-14T06:49:24;14.90;99.90
26691;DHT22;14307;51.718;8.938;2023-05-14T06:51:51;15.10;99.90
26691;DHT22;14307;51.718;8.938;2023-05-14T06:54:18;15.40;99.90
26691;DHT22;14307;51.718;8.938;2023-05-14T06:56:45;15.40;99.90
26691;DHT22;14307;51.718;8.938;2023-05-14T06:59:12;15.50;99.90
26691;DHT22;14307;51.718;8.938;2023-05-14T07:01:39;15.30;99.90
26691;DHT22;14307;51.718;8.938;2023-05-14T07:04:06;15.40;99.90
26691;DHT22;14307;51.718;8.938;2023-05-14T07:06:33;15.60;99.90
26691;DHT22;14307;51.718;8.938;2023-05-14T07:09:00;15.70;99.90
26691;DHT22;14307;51.718;8.938;2023-05-14T07:11:27;15.90;99.90
26691;DHT22;14307;51.718;8.938;2023-05-14T07:13:54;15.50;99.90
26691;DHT22;14307;51.718;8.938;2023-05-14T07:16:21;15.70;99.90
26691;DHT22;14307;51.718;8.938;2023-05-14T07:18:48;15.70;99.90
26691;DHT22;14307;51.718;8.938;2023-05-14T07:21:14;15.30;99.90
26691;DHT22;14307;51.718;8.938;2023-05-14T07:23:41;15.50;99.90
26691;DHT22;14307;51.718;8.938;2023-05-14T07:26:08;15.70;99.90
26691;DHT22;14307;51.718;8.938;2023-05-14T07:28:35;15.70;99.90
26691;DHT22;14307;51.718;8.938;2023-05-14T07:31:02;15.60;99.90
26691;DHT22;14307;51.718;8.938;2023-05-14T07:33:37;15.50;99.90
26691;DHT22;14307;51.718;8.938;2023-05-14T07:36:04;15.40;99.90
26691;DHT22;14307;51.718;8.938;2023-05-14T07:38:31;15.50;99.90
26691;DHT22;14307;51.718;8.938;2023-05-14T07:40:58;15.80;99.90
26691;DHT22;14307;51.718;8.938;2023-05-14T07:43:25;16.00;99.90
26691;DHT22;14307;51.718;8.938;2023-05-14T07:45:52;16.10;99.90
26691;DHT22;14307;51.718;8.938;2023-05-14T07:48:18;16.30;99.90
26691;DHT22;14307;51.718;8.938;2023-05-14T07:50:46;16.90;99.90
26691;DHT22;14307;51.718;8.938;2023-05-14T07:53:13;17.30;99.90
26691;DHT22;14307;51.718;8.938;2023-05-14T07:55:39;17.70;99.90
26691;DHT22;14307;51.718;8.938;2023-05-14T07:58:07;18.00;99.90
26691;DHT22;14307;51.718;8.938;2023-05-14T08:00:34;18.20;99.90
26691;DHT22;14307;51.718;8.938;2023-05-14T08:03:01;18.70;99.90
26691;DHT22;14307;51.718;8.938;2023-05-14T08:05:28;18.80;99.90
26691;DHT22;14307;51.718;8.938;2023-05-14T08:07:54;18.80;99.90
26691;DHT22;14307;51.718;8.938;2023-05-14T08:10:21;18.40;99.90
26691;DHT22;14307;51.718;8.938;2023-05-14T08:12:49;18.00;99.90
26691;DHT22;14307;51.718;8.938;2023-05-14T08:15:15;18.40;99.90
26691;DHT22;14307;51.718;8.938;2023-05-14T08:17:43;18.30;99.90
26691;DHT22;14307;51.718;8.938;2023-05-14T08:20:09;18.10;99.90
26691;DHT22;14307;51.718;8.938;2023-05-14T08:22:37;17.70;99.90
26691;DHT22;14307;51.718;8.938;2023-05-14T08:25:04;17.90;99.90
26691;DHT22;14307;51.718;8.938;2023-05-14T08:27:31;18.00;99.90
26691;DHT22;14307;51.718;8.938;2023-05-14T08:29:58;18.70;99.90
26691;DHT22;14307;51.718;8.938;2023-05-14T08:32:25;18.30;99.90
26691;DHT22;14307;51.718;8.938;2023-05-14T08:34:51;18.40;99.90
26691;DHT22;14307;51.718;8.938;2023-05-14T08:37:18;18.40;99.90
26691;DHT22;14307;51.718;8.938;2023-05-14T08:39:45;18.30;99.90
26691;DHT22;14307;51.718;8.938;2023-05-14T08:42:12;18.20;99.90
26691;DHT22;14307;51.718;8.938;2023-05-14T08:44:52;18.20;99.90
26691;DHT22;14307;51.718;8.938;2023-05-14T08:47:21;18.20;99.90
26691;DHT22;14307;51.718;8.938;2023-05-14T08:50:00;18.90;99.90
26691;DHT22;14307;51.718;8.938;2023-05-14T08:52:29;18.40;99.90
26691;DHT22;14307;51.718;8.938;2023-05-14T08:54:59;18.60;99.90
26691;DHT22;14307;51.718;8.938;2023-05-14T08:57:27;18.80;99.90
26691;DHT22;14307;51.718;8.938;2023-05-14T08:59:55;18.70;99.90
26691;DHT22;14307;51.718;8.938;2023-05-14T09:02:28;18.50;99.90
26691;DHT22;14307;51.718;8.938;2023-05-14T09:04:58;18.60;99.90
26691;DHT22;14307;51.718;8.938;2023-05-14T09:07:25;19.20;99.90
26691;DHT22;14307;51.718;8.938;2023-05-14T09:09:53;19.50;99.90
26691;DHT22;14307;51.718;8.938;2023-05-14T09:12:20;19.60;99.90
26691;DHT22;14307;51.718;8.938;2023-05-14T09:14:48;19.10;99.90
26691;DHT22;14307;51.718;8.938;2023-05-14T09:17:16;18.00;99.90
26691;DHT22;14307;51.718;8.938;2023-05-14T09:19:44;17.70;99.90
26691;DHT22;14307;51.718;8.938;2023-05-14T09:22:15;17.90;99.90
26691;DHT22;14307;51.718;8.938;2023-05-14T09:24:43;18.30;99.90
26691;DHT22;14307;51.718;8.938;2023-05-14T09:27:19;18.50;99.90
26691;DHT22;14307;51.718;8.938;2023-05-14T09:29:47;18.80;99.90
26691;DHT22;14307;51.718;8.938;2023-05-14T09:32:14;18.60;99.90
26691;DHT22;14307;51.718;8.938;2023-05-14T09:34:40;18.60;99.90
26691;DHT22;14307;51.718;8.938;2023-05-14T09:37:08;18.90;99.90
26691;DHT22;14307;51.718;8.938;2023-05-14T09:39:36;19.00;99.90
26691;DHT22;14307;51.718;8.938;2023-05-14T09:42:03;18.90;99.90
26691;DHT22;14307;51.718;8.938;2023-05-14T09:44:30;18.60;99.90
26691;DHT22;14307;51.718;8.938;2023-05-14T09:46:57;18.20;99.90
26691;DHT22;14307;51.718;8.938;2023-05-14T09:49:24;18.00;99.90
26691;DHT22;14307;51.718;8.938;2023-05-14T09:51:51;18.20;99.90
26691;DHT22;14307;51.718;8.938;2023-05-14T09:54:17;18.00;99.90
26691;DHT22;14307;51.718;8.938;2023-05-14T09:56:44;18.00;99.90
26691;DHT22;14307;51.718;8.938;2023-05-14T09:59:11;18.10;99.90
26691;DHT22;14307;51.718;8.938;2023-05-14T10:01:41;18.10;99.90
26691;DHT22;14307;51.718;8.938;2023-05-14T10:04:08;17.90;99.90
26691;DHT22;14307;51.718;8.938;2023-05-14T10:06:38;18.10;99.90
26691;DHT22;14307;51.718;8.938;2023-05-14T10:09:09;18.60;99.90
26691;DHT22;14307;51.718;8.938;2023-05-14T10:11:39;18.90;99.90
26691;DHT22;14307;51.718;8.938;2023-05-14T10:14:15;19.40;99.90
26691;DHT22;14307;51.718;8.938;2023-05-14T10:16:49;19.40;99.90
26691;DHT22;14307;51.718;8.938;2023-05-14T10:19:19;19.70;99.90
26691;DHT22;14307;51.718;8.938;2023-05-14T10:21:56;19.60;99.90
26691;DHT22;14307;51.718;8.938;2023-05-14T10:24:25;19.40;99.90
26691;DHT22;14307;51.718;8.938;2023-05-14T10:26:55;19.30;99.90
26691;DHT22;14307;51.718;8.938;2023-05-14T10:29:35;19.40;99.90
26691;DHT22;14307;51.718;8.938;2023-05-14T10:32:07;19.70;99.90
26691;DHT22;14307;51.718;8.938;2023-05-14T10:34:42;19.70;99.90
26691;DHT22;14307;51.718;8.938;2023-05-14T10:39:52;18.90;99.90
26691;DHT22;14307;51.718;8.938;2023-05-14T10:42:28;18.80;99.90
26691;DHT22;14307;51.718;8.938;2023-05-14T10:45:14;18.90;99.90
26691;DHT22;14307;51.718;8.938;2023-05-14T10:47:42;18.80;99.90
26691;DHT22;14307;51.718;8.938;2023-05-14T10:50:11;19.00;99.90
26691;DHT22;14307;51.718;8.938;2023-05-14T10:52:40;19.00;99.90
26691;DHT22;14307;51.718;8.938;2023-05-14T10:55:10;18.90;99.90
26691;DHT22;14307;51.718;8.938;2023-05-14T10:57:39;18.40;99.90
26691;DHT22;14307;51.718;8.938;2023-05-14T11:00:07;18.30;99.90
26691;DHT22;14307;51.718;8.938;2023-05-14T11:02:37;18.70;99.90
26691;DHT22;14307;51.718;8.938;2023-05-14T11:05:14;18.60;99.90
26691;DHT22;14307;51.718;8.938;2023-05-14T11:07:56;18.90;99.90
26691;DHT22;14307;51.718;8.938;2023-05-14T11:10:23;18.90;99.90
26691;DHT22;14307;51.718;8.938;2023-05-14T11:12:56;18.30;99.90
26691;DHT22;14307;51.718;8.938;2023-05-14T11:15:25;18.70;99.90
26691;DHT22;14307;51.718;8.938;2023-05-14T11:17:53;19.00;99.90
26691;DHT22;14307;51.718;8.938;2023-05-14T11:20:20;18.60;99.90
26691;DHT22;14307;51.718;8.938;2023-05-14T11:22:48;18.70;99.90
26691;DHT22;14307;51.718;8.938;2023-05-14T11:25:18;18.60;99.90
26691;DHT22;14307;51.718;8.938;2023-05-14T11:27:47;18.70;99.90
26691;DHT22;14307;51.718;8.938;2023-05-14T11:30:17;19.00;99.90
26691;DHT22;14307;51.718;8.938;2023-05-14T11:32:45;19.70;99.90
26691;DHT22;14307;51.718;8.938;2023-05-14T11:35:13;20.00;99.90
26691;DHT22;14307;51.718;8.938;2023-05-14T11:37:41;20.50;99.90
26691;DHT22;14307;51.718;8.938;2023-05-14T11:40:14;20.90;99.90
26691;DHT22;14307;51.718;8.938;2023-05-14T11:42:42;21.10;99.90
26691;DHT22;14307;51.718;8.938;2023-05-14T11:45:12;20.70;99.90
26691;DHT22;14307;51.718;8.938;2023-05-14T11:47:40;20.10;99.90
26691;DHT22;14307;51.718;8.938;2023-05-14T11:50:08;19.80;99.90
26691;DHT22;14307;51.718;8.938;2023-05-14T11:52:39;19.80;99.90
26691;DHT22;14307;51.718;8.938;2023-05-14T11:55:11;19.70;99.90
26691;DHT22;14307;51.718;8.938;2023-05-14T11:57:38;19.60;99.90
26691;DHT22;14307;51.718;8.938;2023-05-14T12:00:07;19.90;99.90
26691;DHT22;14307;51.718;8.938;2023-05-14T12:02:35;20.30;99.90
26691;DHT22;14307;51.718;8.938;2023-05-14T12:05:04;20.40;99.90
26691;DHT22;14307;51.718;8.938;2023-05-14T12:07:32;20.40;99.90
26691;DHT22;14307;51.718;8.938;2023-05-14T12:10:01;20.10;99.90
26691;DHT22;14307;51.718;8.938;2023-05-14T12:12:34;19.70;99.90
26691;DHT22;14307;51.718;8.938;2023-05-14T12:15:08;19.60;99.90
26691;DHT22;14307;51.718;8.938;2023-05-14T12:17:37;19.70;99.90
26691;DHT22;14307;51.718;8.938;2023-05-14T12:20:07;20.10;99.90
26691;DHT22;14307;51.718;8.938;2023-05-14T12:22:36;20.50;99.90
26691;DHT22;14307;51.718;8.938;2023-05-14T12:25:03;20.70;99.90
26691;DHT22;14307;51.718;8.938;2023-05-14T12:27:30;20.60;99.90
26691;DHT22;14307;51.718;8.938;2023-05-14T12:29:58;19.80;99.90
26691;DHT22;14307;51.718;8.938;2023-05-14T12:32:38;19.90;99.90
26691;DHT22;14307;51.718;8.938;2023-05-14T12:35:08;20.20;99.90
26691;DHT22;14307;51.718;8.938;2023-05-14T12:37:35;20.20;99.90
26691;DHT22;14307;51.718;8.938;2023-05-14T12:40:03;20.20;99.90
26691;DHT22;14307;51.718;8.938;2023-05-14T12:42:34;20.00;99.90
26691;DHT22;14307;51.718;8.938;2023-05-14T12:45:01;20.10;99.90
26691;DHT22;14307;51.718;8.938;2023-05-14T12:47:31;19.80;99.90
26691;DHT22;14307;51.718;8.938;2023-05-14T12:49:58;19.60;99.90
26691;DHT22;14307;51.718;8.938;2023-05-14T12:52:24;19.30;99.90
26691;DHT22;14307;51.718;8.938;2023-05-14T12:55:04;19.30;99.90
26691;DHT22;14307;51.718;8.938;2023-05-14T12:57:31;19.00;99.90
26691;DHT22;14307;51.718;8.938;2023-05-14T12:59:57;18.70;99.90
26691;DHT22;14307;51.718;8.938;2023-05-14T13:02:24;18.70;99.90
26691;DHT22;14307;51.718;8.938;2023-05-14T13:04:51;18.80;99.90
26691;DHT22;14307;51.718;8.938;2023-05-14T13:07:18;19.20;99.90
26691;DHT22;14307;51.718;8.938;2023-05-14T13:09:44;18.90;99.90
26691;DHT22;14307;51.718;8.938;2023-05-14T13:12:11;18.70;99.90
26691;DHT22;14307;51.718;8.938;2023-05-14T13:14:38;18.60;99.90
26691;DHT22;14307;51.718;8.938;2023-05-14T13:17:04;18.40;99.90
26691;DHT22;14307;51.718;8.938;2023-05-14T13:19:33;17.90;99.90
26691;DHT22;14307;51.718;8.938;2023-05-14T13:22:00;17.70;99.90
26691;DHT22;14307;51.718;8.938;2023-05-14T13:24:26;17.70;99.90
26691;DHT22;14307;51.718;8.938;2023-05-14T13:26:53;17.60;99.90
26691;DHT22;14307;51.718;8.938;2023-05-14T13:29:20;17.40;99.90
26691;DHT22;14307;51.718;8.938;2023-05-14T13:31:47;17.20;99.90
26691;DHT22;14307;51.718;8.938;2023-05-14T13:34:13;16.90;99.90
26691;DHT22;14307;51.718;8.938;2023-05-14T13:36:40;17.00;99.90
26691;DHT22;14307;51.718;8.938;2023-05-14T13:39:09;17.00;99.90
26691;DHT22;14307;51.718;8.938;2023-05-14T13:41:40;16.80;99.90
26691;DHT22;14307;51.718;8.938;2023-05-14T13:44:07;16.70;99.90
26691;DHT22;14307;51.718;8.938;2023-05-14T13:46:33;16.60;99.90
26691;DHT22;14307;51.718;8.938;2023-05-14T13:49:00;16.50;99.90
26691;DHT22;14307;51.718;8.938;2023-05-14T13:51:27;16.50;99.90
26691;DHT22;14307;51.718;8.938;2023-05-14T13:53:53;16.50;99.90
26691;DHT22;14307;51.718;8.938;2023-05-14T13:56:20;16.40;99.90
26691;DHT22;14307;51.718;8.938;2023-05-14T13:58:47;16.50;99.90
26691;DHT22;14307;51.718;8.938;2023-05-14T14:01:14;16.40;99.90
26691;DHT22;14307;51.718;8.938;2023-05-14T14:03:41;16.60;99.90
26691;DHT22;14307;51.718;8.938;2023-05-14T14:06:08;16.60;99.90
26691;DHT22;14307;51.718;8.938;2023-05-14T14:08:35;16.50;99.90
26691;DHT22;14307;51.718;8.938;2023-05-14T14:11:01;16.40;99.90
26691;DHT22;14307;51.718;8.938;2023-05-14T14:13:28;16.10;99.90
26691;DHT22;14307;51.718;8.938;2023-05-14T14:15:55;16.10;99.90
26691;DHT22;14307;51.718;8.938;2023-05-14T14:18:22;16.20;99.90
26691;DHT22;14307;51.718;8.938;2023-05-14T14:20:48;16.00;99.90
26691;DHT22;14307;51.718;8.938;2023-05-14T14:23:15;15.80;99.90
26691;DHT22;14307;51.718;8.938;2023-05-14T14:25:42;15.80;99.90
26691;DHT22;14307;51.718;8.938;2023-05-14T14:28:09;15.60;99.90
26691;DHT22;14307;51.718;8.938;2023-05-14T14:30:35;15.60;99.90
26691;DHT22;14307;51.718;8.938;2023-05-14T14:33:02;15.50;99.90
26691;DHT22;14307;51.718;8.938;2023-05-14T14:35:29;15.70;99.90
26691;DHT22;14307;51.718;8.938;2023-05-14T14:37:58;15.70;99.90
26691;DHT22;14307;51.718;8.938;2023-05-14T14:40:25;15.30;99.90
26691;DHT22;14307;51.718;8.938;2023-05-14T14:42:51;14.90;99.90
26691;DHT22;14307;51.718;8.938;2023-05-14T14:45:18;15.10;99.90
26691;DHT22;14307;51.718;8.938;2023-05-14T14:47:45;15.20;99.90
26691;DHT22;14307;51.718;8.938;2023-05-14T14:50:12;15.30;99.90
26691;DHT22;14307;51.718;8.938;2023-05-14T14:52:40;15.10;99.90
26691;DHT22;14307;51.718;8.938;2023-05-14T14:55:11;15.00;99.90
26691;DHT22;14307;51.718;8.938;2023-05-14T14:57:38;15.10;99.90
26691;DHT22;14307;51.718;8.938;2023-05-14T15:00:05;15.20;99.90
26691;DHT22;14307;51.718;8.938;2023-05-14T15:02:32;15.20;99.90
26691;DHT22;14307;51.718;8.938;2023-05-14T15:05:00;15.20;99.90
26691;DHT22;14307;51.718;8.938;2023-05-14T15:07:27;15.20;99.90
26691;DHT22;14307;51.718;8.938;2023-05-14T15:09:57;15.30;99.90
26691;DHT22;14307;51.718;8.938;2023-05-14T15:12:24;15.40;99.90
26691;DHT22;14307;51.718;8.938;2023-05-14T15:14:51;15.50;99.90
26691;DHT22;14307;51.718;8.938;2023-05-14T15:17:18;15.60;99.90
26691;DHT22;14307;51.718;8.938;2023-05-14T15:19:45;15.60;99.90
26691;DHT22;14307;51.718;8.938;2023-05-14T15:22:11;15.50;99.90
26691;DHT22;14307;51.718;8.938;2023-05-14T15:24:38;15.60;99.90
26691;DHT22;14307;51.718;8.938;2023-05-14T15:27:05;15.50;99.90
26691;DHT22;14307;51.718;8.938;2023-05-14T15:29:32;15.60;99.90
26691;DHT22;14307;51.718;8.938;2023-05-14T15:31:58;15.60;99.90
26691;DHT22;14307;51.718;8.938;2023-05-14T15:34:25;15.90;99.90
26691;DHT22;14307;51.718;8.938;2023-05-14T15:36:52;16.20;99.90
26691;DHT22;14307;51.718;8.938;2023-05-14T15:39:18;16.40;99.90
26691;DHT22;14307;51.718;8.938;2023-05-14T15:41:45;16.20;99.90
26691;DHT22;14307;51.718;8.938;2023-05-14T15:44:12;16.30;99.90
26691;DHT22;14307;51.718;8.938;2023-05-14T15:46:38;16.40;99.90
26691;DHT22;14307;51.718;8.938;2023-05-14T15:49:05;16.60;99.90